Columbia — WYR2092 — position and weather

sailwx.info

Track history (hours):
 
Tides and Currents Weather Stations Pressure Air Temp Water Temp Dewpoint Dewpoint Depression Visibility Wind Speed Wind Dir Waves Ship Positions

Columbia

Owner: ALASKA, STATE OF, ANCHORAGE, AK. More information available from US FCC via Universal Licensing System and Coast Guard Vessel Documentation Center.

Last reported at 2018-Apr-20 23:07 UTC. Time now 2018-Apr-21 00:23 UTC.
Position N 48°43' W 122°31'.

Type: Ship. MMSI: 367144000.

Date/timePositionNaut miles runAvg speedWind from/ knotsBaromVisibWave heightAir tempDewpointWater temp
2018-Apr-20 23:07N 48°43' W 122°31'0 0.0
2018-Apr-20 22:55N 48°43' W 122°31'0 0.0
2018-Apr-20 22:28N 48°43' W 122°31'0 0.0
2018-Apr-20 21:55N 48°43' W 122°31'0 0.0
2018-Apr-20 21:28N 48°43' W 122°31'0 0.0
2018-Apr-20 20:52N 48°43' W 122°31'0 0.0
2018-Apr-20 20:25N 48°43' W 122°31'0 0.0
2018-Apr-20 20:00N 48°43' W 122°31'0 0.0
2018-Apr-20 19:30N 48°43' W 122°31'0 0.0
2018-Apr-20 19:00N 48°43' W 122°31'0 0.0
2018-Apr-20 18:29N 48°43' W 122°31'0 0.0
2018-Apr-20 16:49N 48°43' W 122°31'0 0.0
2018-Apr-20 16:27N 48°43' W 122°31'0 0.0
2018-Apr-20 15:25N 48°43' W 122°31'0 0.0
2018-Apr-20 15:00N 48°43' W 122°31'0 0.2
2018-Apr-20 14:30N 48°43' W 122°31'612.1
2018-Apr-20 14:00N 48°38' W 122°35'815.2
2018-Apr-20 13:30N 48°42' W 122°45'815.8
2018-Apr-20 13:00N 48°47' W 122°54'816.0
2018-Apr-20 12:30N 48°52' W 123°04'715.3
2018-Apr-20 12:00N 48°57' W 123°12'815.5
2018-Apr-20 11:29N 49°02' W 123°22'715.2
2018-Apr-20 11:00N 49°08' W 123°30'815.5
2018-Apr-20 10:29N 49°14' W 123°38'815.9
2018-Apr-20 10:00N 49°18' W 123°47'815.6
2018-Apr-20 09:31N 49°22' W 123°57'815.8
2018-Apr-20 09:00N 49°24' W 124°09'815.6
2018-Apr-20 08:30N 49°26' W 124°21'916.3
2018-Apr-20 07:59N 49°32' W 124°30'816.3
2018-Apr-20 07:30N 49°38' W 124°38'917.0
2018-Apr-20 07:00N 49°44' W 124°47'917.6
2018-Apr-20 06:30N 49°50' W 124°57'916.8
2018-Apr-20 05:58N 49°56' W 125°07'612.7
2018-Apr-20 05:30N 50°01' W 125°12'510.8
2018-Apr-20 05:00N 50°06' W 125°17'612.7
2018-Apr-20 04:30N 50°11' W 125°22'815.5
2018-Apr-20 04:00N 50°19' W 125°25'1014.1
2018-Apr-20 03:16N 50°22' W 125°40'415.6
2018-Apr-20 03:00N 50°22' W 125°47'4315.2
2018-Apr-20 00:11N 50°39' W 126°49'316.4
2018-Apr-19 23:58N 50°41' W 126°53'2716.2
2018-Apr-19 22:20N 50°56' W 127°28'516.8
2018-Apr-19 22:00N 50°59' W 127°35'917.1
2018-Apr-19 21:30N 51°05' W 127°44'917.7
2018-Apr-19 20:59N 51°09' W 127°58'817.3
2018-Apr-19 20:30N 51°17' W 127°53'917.1
2018-Apr-19 20:00N 51°25' W 127°49'816.8
2018-Apr-19 19:30N 51°33' W 127°52'816.8
2018-Apr-19 19:00N 51°41' W 127°55'917.3
2018-Apr-19 18:30N 51°50' W 127°55'917.3
2018-Apr-19 18:00N 51°58' W 127°56'713.6
2018-Apr-19 17:29N 52°05' W 128°02'612.5
2018-Apr-19 17:00N 52°09' W 128°08'3 7.0
2018-Apr-19 16:30N 52°13' W 128°08'816.4
2018-Apr-19 16:00N 52°15' W 128°21'714.8
2018-Apr-19 15:30N 52°18' W 128°32'816.7
2018-Apr-19 15:00N 52°26' W 128°29'9614.9
2018-Apr-19 08:32N 53°47' W 129°56'116.5
2018-Apr-19 08:28N 53°48' W 129°57'716.3
2018-Apr-19 08:01N 53°53' W 130°06'815.3
2018-Apr-19 07:31N 53°59' W 130°13'815.4
2018-Apr-19 07:00N 54°06' W 130°21'816.5
2018-Apr-19 06:30N 54°12' W 130°29'816.0
2018-Apr-19 06:00N 54°19' W 130°36'816.3
2018-Apr-19 05:30N 54°27' W 130°40'816.2
2018-Apr-19 05:00N 54°35' W 130°44'  
2018-Apr-15 11:00N 54°40' W 130°43'816.0
2018-Apr-15 10:30N 54°32' W 130°39'815.8
2018-Apr-15 10:00N 54°24' W 130°37'815.8
2018-Apr-15 09:30N 54°16' W 130°33'816.1
2018-Apr-15 09:00N 54°10' W 130°25'816.7
2018-Apr-15 08:30N 54°04' W 130°16'917.1
2018-Apr-15 08:00N 53°56' W 130°11'916.9
2018-Apr-15 07:30N 53°50' W 130°00'9416.0
2018-Apr-15 01:40N 52°34' W 128°28'617.4
2018-Apr-15 01:21N 52°29' W 128°27'616.9
2018-Apr-15 01:00N 52°23' W 128°31'712.3
2018-Apr-15 00:24N 52°16' W 128°30'717.1
2018-Apr-15 00:00N 52°15' W 128°19'816.4
2018-Apr-14 23:29N 52°11' W 128°06'3 5.7
2018-Apr-14 23:00N 52°09' W 128°08'610.8
2018-Apr-14 22:24N 52°05' W 128°00'614.5
2018-Apr-14 22:00N 51°60' W 127°56'917.4
2018-Apr-14 21:30N 51°51' W 127°55'917.6
2018-Apr-14 21:00N 51°42' W 127°55'917.8
2018-Apr-14 20:30N 51°34' W 127°51'916.9
2018-Apr-14 19:59N 51°25' W 127°49'816.7
2018-Apr-14 19:29N 51°17' W 127°53'713.6
2018-Apr-14 19:00N 51°10' W 127°53'715.2
2018-Apr-14 18:30N 51°05' W 127°44'816.9
2018-Apr-14 18:00N 50°60' W 127°34'917.7
2018-Apr-14 17:30N 50°54' W 127°23'918.1
2018-Apr-14 17:00N 50°50' W 127°10'918.4
2018-Apr-14 16:30N 50°44' W 126°59'917.9
2018-Apr-14 15:59N 50°38' W 126°48'918.1
2018-Apr-14 15:28N 50°31' W 126°38'3319.0
2018-Apr-14 13:43N 50°23' W 125°47'1319.7
2018-Apr-14 13:03N 50°20' W 125°27'117.8
2018-Apr-14 13:01N 50°20' W 125°26'1019.3
2018-Apr-14 12:30N 50°11' W 125°22'814.9
2018-Apr-14 12:00N 50°04' W 125°16'5 9.7
2018-Apr-14 11:30N 49°60' W 125°12'510.4
2018-Apr-14 11:00N 49°56' W 125°07'4 8.6
2018-Apr-14 10:30N 49°53' W 125°02'2 4.3
2018-Apr-14 10:00N 49°55' W 125°04'612.9
2018-Apr-14 09:30N 49°50' W 124°57'815.3
2018-Apr-14 09:01N 49°45' W 124°49'815.1
2018-Apr-14 08:30N 49°40' W 124°41'815.4
2018-Apr-14 08:00N 49°34' W 124°32'815.5
2018-Apr-14 07:30N 49°29' W 124°24'714.7
2018-Apr-14 07:00N 49°25' W 124°14'815.2
2018-Apr-14 06:28N 49°23' W 124°02'715.2
2018-Apr-14 06:00N 49°20' W 123°52'815.1
2018-Apr-14 05:30N 49°17' W 123°42'815.1
2018-Apr-14 05:00N 49°12' W 123°33'815.2
2018-Apr-14 04:30N 49°07' W 123°24'815.3
2018-Apr-14 04:00N 49°01' W 123°16'714.7
2018-Apr-14 03:30N 48°56' W 123°08'815.1
2018-Apr-14 02:56N 48°51' W 122°58'715.0
2018-Apr-14 02:29N 48°47' W 122°50'714.7
2018-Apr-14 02:00N 48°41' W 122°43'612.2
2018-Apr-14 01:30N 48°40' W 122°34'4 8.3
2018-Apr-14 00:59N 48°43' W 122°31'0 0.0
2018-Apr-14 00:23N 48°43' W 122°31'0 0.0
2018-Apr-13 23:53N 48°43' W 122°31'0 0.0
2018-Apr-13 23:14N 48°43' W 122°31'0 0.0
2018-Apr-13 22:59N 48°43' W 122°31'0 0.0
2018-Apr-13 22:02N 48°43' W 122°31'0 0.0
2018-Apr-13 21:59N 48°43' W 122°31'0 0.0
2018-Apr-13 21:02N 48°43' W 122°31'0 0.0
2018-Apr-13 20:59N 48°43' W 122°31'0 0.0
2018-Apr-13 20:20N 48°43' W 122°31'0 0.0
2018-Apr-13 19:59N 48°43' W 122°31'0 0.0
2018-Apr-13 19:02N 48°43' W 122°31'0 0.0
2018-Apr-13 18:53N 48°43' W 122°31'0 0.0
2018-Apr-13 18:29N 48°43' W 122°31'0 0.0
2018-Apr-13 17:29N 48°43' W 122°31'0 0.0
2018-Apr-13 16:59N 48°43' W 122°31'0 0.0
2018-Apr-13 16:23N 48°43' W 122°31'0 0.0
2018-Apr-13 15:59N 48°43' W 122°31'0 0.1
2018-Apr-13 15:29N 48°43' W 122°31'0 0.2
2018-Apr-13 14:38N 48°44' W 122°31'0 0.7
2018-Apr-13 14:30N 48°44' W 122°31'611.9
2018-Apr-13 14:00N 48°38' W 122°35'713.7
2018-Apr-13 13:30N 48°41' W 122°44'714.5
2018-Apr-13 13:00N 48°47' W 122°51'815.6
2018-Apr-13 12:29N 48°51' W 123°02'815.5
2018-Apr-13 11:57N 48°56' W 123°11'716.0
2018-Apr-13 11:30N 49°01' W 123°20'816.6
2018-Apr-13 11:00N 49°07' W 123°29'816.3
2018-Apr-13 10:30N 49°13' W 123°37'816.5
2018-Apr-13 10:00N 49°19' W 123°45'1016.2
2018-Apr-13 09:24N 49°23' W 123°59'616.4
2018-Apr-13 09:00N 49°24' W 124°09'816.1
2018-Apr-13 08:30N 49°26' W 124°21'916.4
2018-Apr-13 07:58N 49°33' W 124°30'716.0
2018-Apr-13 07:30N 49°38' W 124°38'816.2
2018-Apr-13 07:00N 49°44' W 124°47'816.3
2018-Apr-13 06:30N 49°50' W 124°56'816.3
2018-Apr-13 06:00N 49°55' W 125°05'814.8
2018-Apr-13 05:30N 50°01' W 125°13'816.4
2018-Apr-13 05:00N 50°07' W 125°20'713.6
2018-Apr-13 04:30N 50°14' W 125°23'1411.7
2018-Apr-13 03:18N 50°22' W 125°41'4413.7
2018-Apr-13 00:05N 50°37' W 126°46'715.4
2018-Apr-12 23:37N 50°42' W 126°55'315.3
2018-Apr-12 23:24N 50°44' W 126°58'716.4
2018-Apr-12 23:00N 50°48' W 127°07'817.2
2018-Apr-12 22:30N 50°52' W 127°18'816.0
2018-Apr-12 22:00N 50°57' W 127°28'815.2
2018-Apr-12 21:30N 51°02' W 127°37'815.6
2018-Apr-12 21:00N 51°07' W 127°47'713.6
2018-Apr-12 20:30N 51°11' W 127°55'815.6
2018-Apr-12 19:57N 51°20' W 127°52'715.5
2018-Apr-12 19:30N 51°27' W 127°49'714.7
2018-Apr-12 19:00N 51°34' W 127°52'714.4
2018-Apr-12 18:31N 51°41' W 127°55'815.2
2018-Apr-12 18:00N 51°48' W 127°55'714.8
2018-Apr-12 17:30N 51°56' W 127°56'714.9
2018-Apr-12 17:00N 52°03' W 127°56'713.5
2018-Apr-12 16:30N 52°05' W 128°06'611.1
2018-Apr-12 16:00N 52°10' W 128°08'610.6
2018-Apr-12 15:29N 52°14' W 128°14'715.4
2018-Apr-12 15:00N 52°16' W 128°26'5 9.9
2018-Apr-12 14:30N 52°18' W 128°33'714.6
2018-Apr-12 14:00N 52°26' W 128°29'9013.7
2018-Apr-12 07:25N 53°42' W 129°48'715.6
2018-Apr-12 07:00N 53°47' W 129°55'815.7
2018-Apr-12 06:30N 53°52' W 130°04'714.9
2018-Apr-12 06:01N 53°58' W 130°12'714.6
2018-Apr-12 05:30N 54°05' W 130°18'815.2
2018-Apr-12 05:00N 54°10' W 130°26'815.4
2018-Apr-12 04:30N 54°17' W 130°34'815.5
2018-Apr-12 04:00N 54°24' W 130°38'815.9
2018-Apr-12 03:31N 54°32' W 130°42'815.4
2018-Apr-12 02:59N 54°39' W 130°47'715.0
2018-Apr-12 02:30N 54°44' W 130°56'  
Track history (hours):
 
Tides and Currents Weather Stations Pressure Air Temp Water Temp Dewpoint Dewpoint Depression Visibility Wind Speed Wind Dir Waves Ship Positions

Columbia

Owner: ALASKA, STATE OF, ANCHORAGE, AK. More information available from US FCC via Universal Licensing System and Coast Guard Vessel Documentation Center.

Last reported at 2018-Apr-20 23:07 UTC. Time now 2018-Apr-21 00:23 UTC.
Position N 48°43' W 122°31'.

Type: Ship. MMSI: 367144000.

Date/timePositionNaut miles runAvg speedWind from/ knotsBaromVisibWave heightAir tempDewpointWater temp
2018-Apr-20 23:07N 48°43' W 122°31'0 0.0
2018-Apr-20 22:55N 48°43' W 122°31'0 0.0
2018-Apr-20 22:28N 48°43' W 122°31'0 0.0
2018-Apr-20 21:55N 48°43' W 122°31'0 0.0
2018-Apr-20 21:28N 48°43' W 122°31'0 0.0
2018-Apr-20 20:52N 48°43' W 122°31'0 0.0
2018-Apr-20 20:25N 48°43' W 122°31'0 0.0
2018-Apr-20 20:00N 48°43' W 122°31'0 0.0
2018-Apr-20 19:30N 48°43' W 122°31'0 0.0
2018-Apr-20 19:00N 48°43' W 122°31'0 0.0
2018-Apr-20 18:29N 48°43' W 122°31'0 0.0
2018-Apr-20 16:49N 48°43' W 122°31'0 0.0
2018-Apr-20 16:27N 48°43' W 122°31'0 0.0
2018-Apr-20 15:25N 48°43' W 122°31'0 0.0
2018-Apr-20 15:00N 48°43' W 122°31'0 0.2
2018-Apr-20 14:30N 48°43' W 122°31'612.1
2018-Apr-20 14:00N 48°38' W 122°35'815.2
2018-Apr-20 13:30N 48°42' W 122°45'815.8
2018-Apr-20 13:00N 48°47' W 122°54'816.0
2018-Apr-20 12:30N 48°52' W 123°04'715.3
2018-Apr-20 12:00N 48°57' W 123°12'815.5
2018-Apr-20 11:29N 49°02' W 123°22'715.2
2018-Apr-20 11:00N 49°08' W 123°30'815.5
2018-Apr-20 10:29N 49°14' W 123°38'815.9
2018-Apr-20 10:00N 49°18' W 123°47'815.6
2018-Apr-20 09:31N 49°22' W 123°57'815.8
2018-Apr-20 09:00N 49°24' W 124°09'815.6
2018-Apr-20 08:30N 49°26' W 124°21'916.3
2018-Apr-20 07:59N 49°32' W 124°30'816.3
2018-Apr-20 07:30N 49°38' W 124°38'917.0
2018-Apr-20 07:00N 49°44' W 124°47'917.6
2018-Apr-20 06:30N 49°50' W 124°57'916.8
2018-Apr-20 05:58N 49°56' W 125°07'612.7
2018-Apr-20 05:30N 50°01' W 125°12'510.8
2018-Apr-20 05:00N 50°06' W 125°17'612.7
2018-Apr-20 04:30N 50°11' W 125°22'815.5
2018-Apr-20 04:00N 50°19' W 125°25'1014.1
2018-Apr-20 03:16N 50°22' W 125°40'415.6
2018-Apr-20 03:00N 50°22' W 125°47'4315.2
2018-Apr-20 00:11N 50°39' W 126°49'316.4
2018-Apr-19 23:58N 50°41' W 126°53'2716.2
2018-Apr-19 22:20N 50°56' W 127°28'516.8
2018-Apr-19 22:00N 50°59' W 127°35'917.1
2018-Apr-19 21:30N 51°05' W 127°44'917.7
2018-Apr-19 20:59N 51°09' W 127°58'817.3
2018-Apr-19 20:30N 51°17' W 127°53'917.1
2018-Apr-19 20:00N 51°25' W 127°49'816.8
2018-Apr-19 19:30N 51°33' W 127°52'816.8
2018-Apr-19 19:00N 51°41' W 127°55'917.3
2018-Apr-19 18:30N 51°50' W 127°55'917.3
2018-Apr-19 18:00N 51°58' W 127°56'713.6
2018-Apr-19 17:29N 52°05' W 128°02'612.5
2018-Apr-19 17:00N 52°09' W 128°08'3 7.0
2018-Apr-19 16:30N 52°13' W 128°08'816.4
2018-Apr-19 16:00N 52°15' W 128°21'714.8
2018-Apr-19 15:30N 52°18' W 128°32'816.7
2018-Apr-19 15:00N 52°26' W 128°29'9614.9
2018-Apr-19 08:32N 53°47' W 129°56'116.5
2018-Apr-19 08:28N 53°48' W 129°57'716.3
2018-Apr-19 08:01N 53°53' W 130°06'815.3
2018-Apr-19 07:31N 53°59' W 130°13'815.4
2018-Apr-19 07:00N 54°06' W 130°21'816.5
2018-Apr-19 06:30N 54°12' W 130°29'816.0
2018-Apr-19 06:00N 54°19' W 130°36'816.3
2018-Apr-19 05:30N 54°27' W 130°40'816.2
2018-Apr-19 05:00N 54°35' W 130°44'  
2018-Apr-15 11:00N 54°40' W 130°43'816.0
2018-Apr-15 10:30N 54°32' W 130°39'815.8
2018-Apr-15 10:00N 54°24' W 130°37'815.8
2018-Apr-15 09:30N 54°16' W 130°33'816.1
2018-Apr-15 09:00N 54°10' W 130°25'816.7
2018-Apr-15 08:30N 54°04' W 130°16'917.1
2018-Apr-15 08:00N 53°56' W 130°11'916.9
2018-Apr-15 07:30N 53°50' W 130°00'9416.0
2018-Apr-15 01:40N 52°34' W 128°28'617.4
2018-Apr-15 01:21N 52°29' W 128°27'616.9
2018-Apr-15 01:00N 52°23' W 128°31'712.3
2018-Apr-15 00:24N 52°16' W 128°30'717.1
2018-Apr-15 00:00N 52°15' W 128°19'816.4
2018-Apr-14 23:29N 52°11' W 128°06'3 5.7
2018-Apr-14 23:00N 52°09' W 128°08'610.8
2018-Apr-14 22:24N 52°05' W 128°00'614.5
2018-Apr-14 22:00N 51°60' W 127°56'917.4
2018-Apr-14 21:30N 51°51' W 127°55'917.6
2018-Apr-14 21:00N 51°42' W 127°55'917.8
2018-Apr-14 20:30N 51°34' W 127°51'916.9
2018-Apr-14 19:59N 51°25' W 127°49'816.7
2018-Apr-14 19:29N 51°17' W 127°53'713.6
2018-Apr-14 19:00N 51°10' W 127°53'715.2
2018-Apr-14 18:30N 51°05' W 127°44'816.9
2018-Apr-14 18:00N 50°60' W 127°34'917.7
2018-Apr-14 17:30N 50°54' W 127°23'918.1
2018-Apr-14 17:00N 50°50' W 127°10'918.4
2018-Apr-14 16:30N 50°44' W 126°59'917.9
2018-Apr-14 15:59N 50°38' W 126°48'918.1
2018-Apr-14 15:28N 50°31' W 126°38'3319.0
2018-Apr-14 13:43N 50°23' W 125°47'1319.7
2018-Apr-14 13:03N 50°20' W 125°27'117.8
2018-Apr-14 13:01N 50°20' W 125°26'1019.3
2018-Apr-14 12:30N 50°11' W 125°22'814.9
2018-Apr-14 12:00N 50°04' W 125°16'5 9.7
2018-Apr-14 11:30N 49°60' W 125°12'510.4
2018-Apr-14 11:00N 49°56' W 125°07'4 8.6
2018-Apr-14 10:30N 49°53' W 125°02'2 4.3
2018-Apr-14 10:00N 49°55' W 125°04'612.9
2018-Apr-14 09:30N 49°50' W 124°57'815.3
2018-Apr-14 09:01N 49°45' W 124°49'815.1
2018-Apr-14 08:30N 49°40' W 124°41'815.4
2018-Apr-14 08:00N 49°34' W 124°32'815.5
2018-Apr-14 07:30N 49°29' W 124°24'714.7
2018-Apr-14 07:00N 49°25' W 124°14'815.2
2018-Apr-14 06:28N 49°23' W 124°02'715.2
2018-Apr-14 06:00N 49°20' W 123°52'815.1
2018-Apr-14 05:30N 49°17' W 123°42'815.1
2018-Apr-14 05:00N 49°12' W 123°33'815.2
2018-Apr-14 04:30N 49°07' W 123°24'815.3
2018-Apr-14 04:00N 49°01' W 123°16'714.7
2018-Apr-14 03:30N 48°56' W 123°08'815.1
2018-Apr-14 02:56N 48°51' W 122°58'715.0
2018-Apr-14 02:29N 48°47' W 122°50'714.7
2018-Apr-14 02:00N 48°41' W 122°43'612.2
2018-Apr-14 01:30N 48°40' W 122°34'4 8.3
2018-Apr-14 00:59N 48°43' W 122°31'0 0.0
2018-Apr-14 00:23N 48°43' W 122°31'0 0.0
2018-Apr-13 23:53N 48°43' W 122°31'0 0.0
2018-Apr-13 23:14N 48°43' W 122°31'0 0.0
2018-Apr-13 22:59N 48°43' W 122°31'0 0.0
2018-Apr-13 22:02N 48°43' W 122°31'0 0.0
2018-Apr-13 21:59N 48°43' W 122°31'0 0.0
2018-Apr-13 21:02N 48°43' W 122°31'0 0.0
2018-Apr-13 20:59N 48°43' W 122°31'0 0.0
2018-Apr-13 20:20N 48°43' W 122°31'0 0.0
2018-Apr-13 19:59N 48°43' W 122°31'0 0.0
2018-Apr-13 19:02N 48°43' W 122°31'0 0.0
2018-Apr-13 18:53N 48°43' W 122°31'0 0.0
2018-Apr-13 18:29N 48°43' W 122°31'0 0.0
2018-Apr-13 17:29N 48°43' W 122°31'0 0.0
2018-Apr-13 16:59N 48°43' W 122°31'0 0.0
2018-Apr-13 16:23N 48°43' W 122°31'0 0.0
2018-Apr-13 15:59N 48°43' W 122°31'0 0.1
2018-Apr-13 15:29N 48°43' W 122°31'0 0.2
2018-Apr-13 14:38N 48°44' W 122°31'0 0.7
2018-Apr-13 14:30N 48°44' W 122°31'611.9
2018-Apr-13 14:00N 48°38' W 122°35'713.7
2018-Apr-13 13:30N 48°41' W 122°44'714.5
2018-Apr-13 13:00N 48°47' W 122°51'815.6
2018-Apr-13 12:29N 48°51' W 123°02'815.5
2018-Apr-13 11:57N 48°56' W 123°11'716.0
2018-Apr-13 11:30N 49°01' W 123°20'816.6
2018-Apr-13 11:00N 49°07' W 123°29'816.3
2018-Apr-13 10:30N 49°13' W 123°37'816.5
2018-Apr-13 10:00N 49°19' W 123°45'1016.2
2018-Apr-13 09:24N 49°23' W 123°59'616.4
2018-Apr-13 09:00N 49°24' W 124°09'816.1
2018-Apr-13 08:30N 49°26' W 124°21'916.4
2018-Apr-13 07:58N 49°33' W 124°30'716.0
2018-Apr-13 07:30N 49°38' W 124°38'816.2
2018-Apr-13 07:00N 49°44' W 124°47'816.3
2018-Apr-13 06:30N 49°50' W 124°56'816.3
2018-Apr-13 06:00N 49°55' W 125°05'814.8
2018-Apr-13 05:30N 50°01' W 125°13'816.4
2018-Apr-13 05:00N 50°07' W 125°20'713.6
2018-Apr-13 04:30N 50°14' W 125°23'1411.7
2018-Apr-13 03:18N 50°22' W 125°41'4413.7
2018-Apr-13 00:05N 50°37' W 126°46'715.4
2018-Apr-12 23:37N 50°42' W 126°55'315.3
2018-Apr-12 23:24N 50°44' W 126°58'716.4
2018-Apr-12 23:00N 50°48' W 127°07'817.2
2018-Apr-12 22:30N 50°52' W 127°18'816.0
2018-Apr-12 22:00N 50°57' W 127°28'815.2
2018-Apr-12 21:30N 51°02' W 127°37'815.6
2018-Apr-12 21:00N 51°07' W 127°47'713.6
2018-Apr-12 20:30N 51°11' W 127°55'815.6
2018-Apr-12 19:57N 51°20' W 127°52'715.5
2018-Apr-12 19:30N 51°27' W 127°49'714.7
2018-Apr-12 19:00N 51°34' W 127°52'714.4
2018-Apr-12 18:31N 51°41' W 127°55'815.2
2018-Apr-12 18:00N 51°48' W 127°55'714.8
2018-Apr-12 17:30N 51°56' W 127°56'714.9
2018-Apr-12 17:00N 52°03' W 127°56'713.5
2018-Apr-12 16:30N 52°05' W 128°06'611.1
2018-Apr-12 16:00N 52°10' W 128°08'610.6
2018-Apr-12 15:29N 52°14' W 128°14'715.4
2018-Apr-12 15:00N 52°16' W 128°26'5 9.9
2018-Apr-12 14:30N 52°18' W 128°33'714.6
2018-Apr-12 14:00N 52°26' W 128°29'9013.7
2018-Apr-12 07:25N 53°42' W 129°48'715.6
2018-Apr-12 07:00N 53°47' W 129°55'815.7
2018-Apr-12 06:30N 53°52' W 130°04'714.9
2018-Apr-12 06:01N 53°58' W 130°12'714.6
2018-Apr-12 05:30N 54°05' W 130°18'815.2
2018-Apr-12 05:00N 54°10' W 130°26'815.4
2018-Apr-12 04:30N 54°17' W 130°34'815.5
2018-Apr-12 04:00N 54°24' W 130°38'815.9
2018-Apr-12 03:31N 54°32' W 130°42'815.4
2018-Apr-12 02:59N 54°39' W 130°47'715.0
2018-Apr-12 02:30N 54°44' W 130°56'  

Dump ship's entire track history